Disclaimer

Please do not use the information listed here in-flight or in-navigation, as they are not provided to us by the airports but are provided by volunteers, so they might be outdated.

Search


Regions


Airport information page

Radio informations:
Tower (TWR) - 121.1 MHz
BASE OPS - 359.4 MHz
Ground (GND) - 121.7 MHz
Approach (APP) - 118.125 MHz
CHANIA RDO - 5637 MHz

Airport informations:
Latitude: 35° 31' 54.29" N
Longitude: 024° 08' 58.84" E
Elevation: 490 feet - 149 meters
Operating hours: 24 hour operations
Operating agency: Military
Timezone: UTC+2(+3DT) - Last Sunday in March to last Sunday in October
Fuel: JP-4, Wide cut turbine fuel MIL Spec T-5624

JP-5, Keroscene MIL Spec T-5624

Jet A1, without icing nhibitor.

115/145 octane gasoline, leaded, MIL-L-5572F (PURPLE)

100/130 MIL Spec, low lead, aviation gasoline (BLUE)

Runway information:
11/29 - 10982 x 148 feet< - >3347 x 45 meters

Recent METARs:
LGSA 180920Z 00000KT 9999 SCT030 OVC100 17/15 Q1014
LGSA 180950Z 00000KT 9999 SCT030 OVC100 18/16 Q1013
LGSA 181020Z 00000KT 9999 SCT030 OVC100 18/16 Q1013

Airport on the map: